Time;durP1;ratioP1;P1;durP2;ratioP2;P2;SDS_P1;SDS_P2;PMS_P1;PMS_P2;Temp;Humidity;BMP_temperature;BMP_pressure;BME280_temperature;BME280_humidity;BME280_pressure;Samples;Min_cycle;Max_cycle;Signal;HPM_P1;HPM_P2
2022/01/27 00:01:13;;;;;;;33.97;10.90;;;6.50;99.90;;;;;;4977264;28;20065;-67
2022/01/27 00:04:01;;;;;;;26.75;10.30;;;6.50;99.90;;;;;;4963927;28;20053;-67
2022/01/27 00:06:27;;;;;;;25.38;9.88;;;6.50;99.90;;;;;;4968570;28;20527;-66
2022/01/27 00:08:58;;;;;;;26.10;10.73;;;6.50;99.90;;;;;;4971062;28;20061;-68
2022/01/27 00:11:24;;;;;;;23.73;11.00;;;6.50;99.90;;;;;;4972587;28;20082;-68
2022/01/27 00:14:00;;;;;;;26.40;10.13;;;6.50;99.90;;;;;;4966525;28;20043;-69
2022/01/27 00:16:28;;;;;;;30.23;10.93;;;6.60;99.90;;;;;;4974610;28;20129;-69
2022/01/27 00:18:55;;;;;;;31.30;11.25;;;6.50;99.90;;;;;;4967641;28;20081;-69
2022/01/27 00:21:24;;;;;;;;;;;6.50;99.90;;;;;;4969479;28;20083;-68
2022/01/27 00:23:51;;;;;;;29.70;11.18;;;6.50;99.90;;;;;;4971899;28;19922;-69
2022/01/27 00:26:18;;;;;;;26.55;10.20;;;6.50;99.90;;;;;;4969262;28;20073;-68
2022/01/27 00:28:45;;;;;;;27.40;10.75;;;6.50;99.90;;;;;;4973007;28;20046;-69
2022/01/27 00:31:12;;;;;;;35.38;11.70;;;6.50;99.90;;;;;;4976710;28;20042;-69
2022/01/27 00:33:38;;;;;;;23.27;10.43;;;6.50;99.90;;;;;;4973019;28;20414;-68
2022/01/27 00:36:04;;;;;;;25.67;10.65;;;6.50;99.90;;;;;;4982498;28;20030;-68
2022/01/27 00:38:30;;;;;;;26.15;10.88;;;6.50;99.90;;;;;;4973305;28;20046;-68
2022/01/27 00:40:56;;;;;;;25.50;10.40;;;6.40;99.90;;;;;;4970671;28;20580;-69
2022/01/27 00:43:22;;;;;;;29.50;10.67;;;6.40;99.90;;;;;;4967097;28;20035;-75
2022/01/27 00:45:47;;;;;;;23.23;9.18;;;6.40;99.90;;;;;;4968806;28;20057;-69
2022/01/27 00:48:16;;;;;;;37.67;11.27;;;6.40;99.90;;;;;;4971145;28;20038;-69
2022/01/27 00:50:42;;;;;;;28.38;9.93;;;6.40;99.90;;;;;;4970563;28;20488;-69
2022/01/27 00:53:18;;;;;;;27.33;11.02;;;6.40;99.90;;;;;;4977662;28;20038;-68
2022/01/27 00:55:44;;;;;;;31.87;11.30;;;6.30;99.90;;;;;;4978780;28;20422;-68
2022/01/27 00:58:36;;;;;;;32.17;11.43;;;6.30;99.90;;;;;;4991520;23;20666;-66
2022/01/27 01:01:01;;;;;;;26.00;10.45;;;6.30;99.90;;;;;;4957442;28;20122;-66
2022/01/27 01:03:32;;;;;;;37.92;11.45;;;6.30;99.90;;;;;;4963805;28;20539;-66
2022/01/27 01:16:51;;;;;;;23.42;10.75;;;6.20;99.90;;;;;;4974276;28;20428;-66
2022/01/27 01:19:35;;;;;;;32.75;12.48;;;6.10;99.90;;;;;;4956095;28;20057;-65
2022/01/27 01:32:47;;;;;;;29.67;12.75;;;6.10;99.90;;;;;;4975985;28;20073;-66
2022/01/27 01:35:13;;;;;;;25.15;12.02;;;6.10;99.90;;;;;;4978691;28;20146;-65
2022/01/27 01:37:41;;;;;;;26.73;11.80;;;6.00;99.90;;;;;;4973202;28;20057;-66
2022/01/27 01:40:13;;;;;;;26.02;11.48;;;6.00;99.90;;;;;;4982172;28;20038;-66
2022/01/27 01:42:41;;;;;;;25.73;12.07;;;6.00;99.90;;;;;;4953600;28;20077;-66
2022/01/27 01:45:09;;;;;;;29.27;11.77;;;6.00;99.90;;;;;;4983616;28;20145;-66
2022/01/27 01:47:36;;;;;;;28.23;13.70;;;6.00;99.90;;;;;;4981750;28;20094;-65
2022/01/27 01:50:02;;;;;;;28.52;13.85;;;6.00;99.90;;;;;;4978347;28;20562;-66
2022/01/27 01:52:28;;;;;;;36.42;13.90;;;6.00;99.90;;;;;;4980253;28;20042;-66
2022/01/27 01:54:54;;;;;;;30.90;13.70;;;6.00;99.90;;;;;;4959006;28;20057;-66
2022/01/27 01:57:20;;;;;;;32.90;14.38;;;6.00;99.90;;;;;;4977447;28;20335;-65
2022/01/27 01:59:46;;;;;;;30.10;13.68;;;6.00;99.90;;;;;;4984009;28;20043;-66
2022/01/27 02:02:13;;;;;;;38.53;13.87;;;5.90;99.90;;;;;;4963796;28;20615;-65
2022/01/27 02:04:42;;;;;;;27.70;11.82;;;6.00;99.90;;;;;;4968291;28;20077;-65
2022/01/27 02:07:26;;;;;;;25.77;13.02;;;6.00;99.90;;;;;;4984866;28;20045;-66
2022/01/27 02:18:00;;;;;;;30.58;12.20;;;6.00;99.90;;;;;;4985915;28;20046;-65
2022/01/27 02:20:30;;;;;;;34.30;14.20;;;6.00;99.90;;;;;;4985952;28;20125;-66
2022/01/27 02:22:56;;;;;;;34.33;13.07;;;6.00;99.90;;;;;;4968823;28;20315;-65
2022/01/27 02:25:22;;;;;;;34.50;14.87;;;6.10;99.90;;;;;;4961540;28;20122;-65
2022/01/27 02:27:53;;;;;;;37.13;13.27;;;6.10;99.90;;;;;;4974976;28;20046;-65
2022/01/27 02:30:18;;;;;;;35.28;13.75;;;6.10;99.90;;;;;;4973644;28;20046;-66
2022/01/27 02:32:45;;;;;;;35.40;13.40;;;6.10;99.90;;;;;;4971748;28;20392;-65
2022/01/27 02:35:11;;;;;;;35.20;14.77;;;6.20;99.90;;;;;;4983363;28;20062;-65
2022/01/27 02:37:37;;;;;;;32.65;14.00;;;6.20;99.90;;;;;;4985729;28;20204;-65
2022/01/27 02:40:04;;;;;;;32.00;14.73;;;6.20;99.90;;;;;;4982366;28;20034;-65
2022/01/27 02:42:34;;;;;;;31.35;12.90;;;6.20;99.90;;;;;;4981436;28;20039;-65
2022/01/27 02:45:08;;;;;;;27.50;12.95;;;6.20;99.90;;;;;;4963302;28;20077;-66
2022/01/27 02:47:33;;;;;;;27.23;12.13;;;6.20;99.90;;;;;;4963054;28;20357;-66
2022/01/27 02:49:59;;;;;;;37.90;14.60;;;6.20;99.90;;;;;;4981031;28;20116;-66
2022/01/27 02:52:25;;;;;;;35.03;14.73;;;6.20;99.90;;;;;;4975902;28;20082;-66
2022/01/27 02:54:51;;;;;;;32.58;15.18;;;6.20;99.90;;;;;;4969645;28;20051;-66
2022/01/27 02:57:17;;;;;;;36.93;13.67;;;6.20;99.90;;;;;;4977149;28;20039;-66
2022/01/27 02:59:42;;;;;;;32.15;14.27;;;6.30;99.90;;;;;;4968429;28;20047;-66
2022/01/27 03:02:08;;;;;;;29.90;13.90;;;6.30;99.90;;;;;;4969172;28;20347;-66
2022/01/27 03:04:34;;;;;;;26.63;12.30;;;6.30;99.90;;;;;;4974597;28;20047;-66
2022/01/27 03:07:04;;;;;;;34.40;13.83;;;6.30;99.90;;;;;;4979467;28;20031;-66
2022/01/27 03:09:32;;;;;;;34.40;14.30;;;6.30;99.90;;;;;;4988364;28;20557;-65
2022/01/27 03:12:03;;;;;;;34.90;13.82;;;6.30;99.90;;;;;;4979200;28;20578;-65
2022/01/27 03:14:30;;;;;;;39.45;14.55;;;6.40;99.90;;;;;;4985048;28;20039;-66
2022/01/27 03:16:58;;;;;;;29.83;14.75;;;6.30;99.90;;;;;;4987629;28;20213;-65
2022/01/27 03:19:23;;;;;;;28.98;12.38;;;6.30;99.90;;;;;;4986615;28;20509;-66
2022/01/27 03:21:50;;;;;;;35.13;14.93;;;6.40;99.90;;;;;;4979513;28;20038;-66
2022/01/27 03:24:16;;;;;;;30.65;12.57;;;6.40;99.90;;;;;;4967916;28;20289;-66
2022/01/27 03:26:42;;;;;;;26.38;12.93;;;6.30;99.90;;;;;;4983391;28;20049;-66
2022/01/27 03:29:08;;;;;;;31.90;12.18;;;6.40;99.90;;;;;;4966255;28;20348;-65
2022/01/27 03:31:35;;;;;;;32.20;12.50;;;6.40;99.90;;;;;;4982128;28;20046;-65
2022/01/27 03:34:01;;;;;;;33.10;13.75;;;6.40;99.90;;;;;;4989792;28;20058;-66
2022/01/27 03:36:26;;;;;;;31.63;13.00;;;6.40;99.90;;;;;;4982401;28;20479;-66
2022/01/27 03:38:52;;;;;;;37.27;14.13;;;6.40;99.90;;;;;;4970776;28;20043;-66
2022/01/27 03:41:20;;;;;;;29.33;14.00;;;6.40;99.90;;;;;;4977276;28;20108;-66
2022/01/27 03:43:47;;;;;;;27.23;12.68;;;6.40;99.90;;;;;;4981885;28;20050;-65
2022/01/27 03:46:14;;;;;;;35.47;12.93;;;6.50;99.90;;;;;;4977914;28;20042;-66
2022/01/27 03:48:41;;;;;;;29.10;12.23;;;6.50;99.90;;;;;;4983458;28;20038;-65
2022/01/27 03:51:06;;;;;;;30.67;11.70;;;6.50;99.90;;;;;;4978777;28;20034;-65
2022/01/27 03:53:32;;;;;;;33.60;12.57;;;6.50;99.90;;;;;;4960893;28;20407;-65
2022/01/27 03:55:58;;;;;;;29.17;10.70;;;6.50;99.90;;;;;;4982696;28;20388;-66
2022/01/27 03:58:24;;;;;;;33.73;12.73;;;6.50;99.90;;;;;;4988000;28;20038;-65
2022/01/27 04:00:50;;;;;;;37.75;12.43;;;6.50;99.90;;;;;;4983304;28;20498;-66
2022/01/27 04:03:17;;;;;;;33.10;12.50;;;6.50;99.90;;;;;;4961973;28;20145;-65
2022/01/27 04:05:50;;;;;;;29.50;11.40;;;6.50;99.90;;;;;;4978937;28;20069;-65
2022/01/27 04:08:16;;;;;;;29.13;10.75;;;6.50;99.90;;;;;;4967211;28;20072;-66
2022/01/27 04:10:42;;;;;;;25.48;10.82;;;6.50;99.90;;;;;;4963616;28;20380;-66
2022/01/27 04:13:09;;;;;;;32.95;12.30;;;6.50;99.90;;;;;;4981706;28;20045;-66
2022/01/27 04:15:36;;;;;;;29.90;11.65;;;6.50;99.90;;;;;;4976130;28;20042;-65
2022/01/27 04:18:03;;;;;;;29.67;10.93;;;6.50;99.90;;;;;;4980023;28;20488;-66
2022/01/27 04:20:29;;;;;;;;;;;6.50;99.90;;;;;;4986213;28;20667;-65
2022/01/27 04:22:54;;;;;;;25.67;10.25;;;6.60;99.90;;;;;;4976950;28;20181;-66
2022/01/27 04:25:20;;;;;;;26.30;9.93;;;6.60;99.90;;;;;;4983701;28;20026;-66
2022/01/27 04:27:50;;;;;;;29.73;10.70;;;6.60;99.90;;;;;;4976029;28;20097;-65
2022/01/27 04:30:18;;;;;;;28.77;11.45;;;6.60;99.90;;;;;;4976727;28;20454;-66
2022/01/27 04:32:58;;;;;;;28.58;10.18;;;6.70;99.90;;;;;;4974896;28;20129;-66
2022/01/27 04:35:27;;;;;;;25.42;10.25;;;6.70;99.90;;;;;;4975412;28;20363;-66
2022/01/27 04:38:13;;;;;;;32.47;10.52;;;6.70;99.90;;;;;;4979060;28;20034;-66
2022/01/27 04:43:48;;;;;;;25.13;10.25;;;6.70;99.90;;;;;;4980251;28;20562;-66
2022/01/27 04:46:26;;;;;;;28.88;10.25;;;6.70;99.90;;;;;;4980497;28;20034;-65
2022/01/27 04:48:55;;;;;;;27.55;11.48;;;6.70;99.90;;;;;;4976174;28;20047;-65
2022/01/27 04:51:23;;;;;;;28.35;10.75;;;6.60;99.90;;;;;;4959873;28;20104;-66
2022/01/27 04:53:59;;;;;;;26.85;10.60;;;6.70;99.90;;;;;;4973782;28;20047;-65
2022/01/27 04:56:27;;;;;;;32.33;10.80;;;6.70;99.90;;;;;;4982922;28;20043;-66
2022/01/27 04:58:58;;;;;;;23.75;10.30;;;6.70;99.90;;;;;;4980648;28;20448;-66
2022/01/27 05:01:31;;;;;;;24.02;10.30;;;6.70;99.90;;;;;;4974992;28;20555;-66
2022/01/27 05:04:02;;;;;;;25.27;10.65;;;6.70;99.90;;;;;;4979421;28;20042;-66
2022/01/27 05:06:28;;;;;;;26.65;9.90;;;6.70;99.90;;;;;;4972857;28;20574;-66
2022/01/27 05:08:55;;;;;;;27.53;9.43;;;6.70;99.90;;;;;;4980647;28;20054;-65
2022/01/27 05:11:34;;;;;;;30.23;9.85;;;6.70;99.90;;;;;;4963295;28;20034;-66
2022/01/27 05:14:22;;;;;;;22.70;9.45;;;6.80;99.90;;;;;;4976328;28;20122;-66
2022/01/27 05:16:48;;;;;;;35.10;10.73;;;6.80;99.90;;;;;;4973680;28;20134;-66
2022/01/27 05:19:14;;;;;;;36.73;10.57;;;6.80;99.90;;;;;;4974506;28;20517;-66
2022/01/27 05:21:41;;;;;;;32.10;9.37;;;6.80;99.90;;;;;;4983689;28;20429;-65
2022/01/27 05:24:07;;;;;;;32.40;9.55;;;6.80;99.90;;;;;;4977125;28;20308;-66
2022/01/27 05:26:34;;;;;;;27.35;9.77;;;6.80;99.90;;;;;;4966880;28;20472;-66
2022/01/27 05:29:00;;;;;;;28.98;9.18;;;6.70;99.90;;;;;;4972928;28;20173;-66
2022/01/27 05:31:26;;;;;;;31.80;10.75;;;6.80;99.90;;;;;;4968704;28;20124;-66
2022/01/27 05:33:52;;;;;;;25.93;9.53;;;6.70;99.90;;;;;;4971751;28;20579;-66
2022/01/27 05:36:17;;;;;;;31.20;9.43;;;6.70;99.90;;;;;;4973737;28;20423;-66
2022/01/27 05:38:43;;;;;;;26.90;11.03;;;6.70;99.90;;;;;;4966924;28;20655;-66
2022/01/27 05:41:08;;;;;;;19.87;8.40;;;6.70;99.90;;;;;;4976238;28;20042;-66
2022/01/27 05:43:35;;;;;;;24.73;8.97;;;6.60;99.90;;;;;;4975591;28;20046;-66
2022/01/27 05:46:00;;;;;;;24.83;9.05;;;6.60;99.90;;;;;;4971543;28;20049;-66
2022/01/27 05:48:26;;;;;;;23.00;9.63;;;6.60;99.90;;;;;;4984105;28;20152;-66
2022/01/27 05:50:51;;;;;;;31.33;9.97;;;6.60;99.90;;;;;;4988949;28;20093;-66
2022/01/27 05:53:17;;;;;;;27.80;10.30;;;6.60;99.90;;;;;;4982258;28;20046;-66
2022/01/27 05:55:43;;;;;;;23.13;8.77;;;6.60;99.90;;;;;;4980314;28;20053;-66
2022/01/27 05:58:08;;;;;;;25.03;9.50;;;6.60;99.90;;;;;;4991173;28;20293;-66
2022/01/27 06:00:34;;;;;;;29.27;10.60;;;6.50;99.90;;;;;;4971239;28;20445;-66
2022/01/27 06:03:00;;;;;;;29.40;9.03;;;6.60;99.90;;;;;;4989729;28;20515;-65
2022/01/27 06:05:26;;;;;;;22.70;8.87;;;6.60;99.90;;;;;;4979448;28;20492;-66
2022/01/27 06:07:52;;;;;;;25.65;8.90;;;6.60;99.90;;;;;;4979517;28;20519;-66
2022/01/27 06:10:19;;;;;;;30.25;9.15;;;6.60;99.90;;;;;;4963459;28;20445;-65
2022/01/27 06:12:53;;;;;;;24.65;9.20;;;6.60;99.90;;;;;;4977217;28;20041;-65
2022/01/27 06:15:20;;;;;;;26.13;9.30;;;6.60;99.90;;;;;;4983586;28;20049;-66
2022/01/27 06:17:46;;;;;;;28.02;9.80;;;6.60;99.90;;;;;;4978229;28;20086;-66
2022/01/27 06:20:12;;;;;;;30.10;11.75;;;6.60;99.90;;;;;;4979849;28;20042;-66
2022/01/27 06:22:38;;;;;;;26.27;8.90;;;6.60;99.90;;;;;;4987776;28;20236;-65
2022/01/27 06:25:04;;;;;;;28.03;9.57;;;6.60;99.90;;;;;;4973231;28;20046;-65
2022/01/27 06:27:30;;;;;;;22.27;8.77;;;6.60;99.90;;;;;;4959832;28;20431;-65
2022/01/27 06:29:55;;;;;;;24.67;7.80;;;6.60;99.90;;;;;;4957293;28;20051;-65
2022/01/27 06:32:21;;;;;;;33.67;9.73;;;6.70;99.90;;;;;;4974294;28;20042;-65
2022/01/27 06:34:46;;;;;;;23.97;9.40;;;6.60;99.90;;;;;;4984203;28;20035;-65
2022/01/27 06:37:13;;;;;;;33.63;10.53;;;6.70;99.90;;;;;;4985473;28;20070;-65
2022/01/27 06:39:38;;;;;;;29.38;9.90;;;6.70;99.90;;;;;;4982362;28;20113;-65
2022/01/27 06:42:05;;;;;;;29.67;9.30;;;6.70;99.90;;;;;;4977627;28;20479;-66
2022/01/27 06:44:30;;;;;;;37.53;10.05;;;6.70;99.90;;;;;;4970808;28;20067;-66
2022/01/27 06:46:56;;;;;;;27.50;9.40;;;6.70;99.90;;;;;;4975255;28;20090;-66
2022/01/27 06:49:22;;;;;;;25.93;9.23;;;6.70;99.90;;;;;;4978520;28;20438;-66
2022/01/27 06:51:47;;;;;;;26.40;10.13;;;6.70;99.90;;;;;;4962206;28;20105;-66
2022/01/27 06:54:15;;;;;;;23.43;8.90;;;6.70;99.90;;;;;;4984879;28;20375;-66
2022/01/27 06:56:41;;;;;;;29.25;10.77;;;6.70;99.90;;;;;;4978868;28;20045;-65
2022/01/27 06:59:53;;;;;;;30.20;8.67;;;6.70;99.90;;;;;;5040056;23;20038;-81
2022/01/27 07:02:19;;;;;;;26.52;9.43;;;6.80;99.90;;;;;;4965875;28;20107;-81
2022/01/27 07:04:45;;;;;;;33.13;9.33;;;6.80;99.90;;;;;;5000634;28;20135;-82
2022/01/27 07:07:12;;;;;;;24.50;9.27;;;6.70;99.90;;;;;;4971326;23;20047;-67
2022/01/27 07:09:39;;;;;;;27.95;8.60;;;6.80;99.90;;;;;;4964156;28;20399;-67
2022/01/27 07:12:05;;;;;;;24.45;8.13;;;6.80;99.90;;;;;;4943810;28;20445;-67
2022/01/27 07:14:33;;;;;;;;;;;6.80;99.90;;;;;;4933165;29;20122;-67
2022/01/27 07:16:59;;;;;;;28.40;8.32;;;6.90;99.90;;;;;;4964162;28;19919;-67
2022/01/27 07:19:24;;;;;;;24.38;8.57;;;6.90;99.90;;;;;;4943263;28;20032;-67
2022/01/27 07:21:50;;;;;;;29.17;8.77;;;6.90;99.90;;;;;;4944734;28;20772;-73
2022/01/27 07:24:16;;;;;;;25.13;8.93;;;6.80;99.90;;;;;;4947266;28;20136;-73
2022/01/27 07:26:41;;;;;;;30.23;8.83;;;6.90;99.90;;;;;;4934982;28;20102;-67
2022/01/27 07:29:07;;;;;;;23.53;7.83;;;6.90;99.90;;;;;;4942437;28;20360;-67
2022/01/27 07:31:33;;;;;;;29.27;8.13;;;6.90;99.90;;;;;;4941877;28;20381;-67
2022/01/27 07:33:59;;;;;;;24.70;9.27;;;6.90;99.90;;;;;;4940356;28;20051;-67
2022/01/27 07:36:24;;;;;;;34.03;9.70;;;7.00;99.90;;;;;;4949026;28;20039;-67
2022/01/27 07:38:50;;;;;;;26.00;9.23;;;7.00;99.90;;;;;;4944575;28;20038;-67
2022/01/27 07:41:17;;;;;;;27.83;8.25;;;7.10;99.90;;;;;;4945276;28;20043;-67
2022/01/27 07:43:44;;;;;;;26.05;8.10;;;7.00;99.90;;;;;;4941796;28;20051;-68
2022/01/27 07:46:13;;;;;;;24.42;8.60;;;7.10;99.90;;;;;;4964768;28;20388;-67
2022/01/27 07:48:40;;;;;;;37.10;7.70;;;7.10;99.90;;;;;;4942690;28;20071;-67
2022/01/27 07:51:07;;;;;;;24.08;7.05;;;7.10;99.90;;;;;;4944496;28;20047;-68
2022/01/27 07:53:33;;;;;;;30.17;7.82;;;7.20;99.90;;;;;;4945736;28;20050;-68
2022/01/27 07:56:01;;;;;;;20.02;7.13;;;7.20;99.90;;;;;;4925754;28;20203;-68
2022/01/27 07:58:27;;;;;;;26.83;8.73;;;7.20;99.90;;;;;;4933479;28;20052;-67
2022/01/27 08:00:53;;;;;;;24.85;7.68;;;7.30;99.90;;;;;;4943284;28;20137;-67
2022/01/27 08:03:19;;;;;;;25.30;7.83;;;7.30;99.90;;;;;;4943435;28;20512;-67
2022/01/27 08:05:44;;;;;;;27.90;7.17;;;7.40;99.90;;;;;;4947721;28;20496;-68
2022/01/27 08:08:10;;;;;;;26.03;6.20;;;7.30;99.90;;;;;;4938245;28;20226;-68
2022/01/27 08:10:38;;;;;;;21.07;6.93;;;7.40;99.90;;;;;;4945561;28;20042;-68
2022/01/27 08:13:09;;;;;;;22.60;7.45;;;7.40;99.90;;;;;;4945530;28;20039;-67
2022/01/27 08:15:35;;;;;;;23.40;6.03;;;7.50;99.90;;;;;;4939434;28;20126;-67
2022/01/27 08:18:01;;;;;;;23.33;8.17;;;7.50;99.90;;;;;;4940758;28;20044;-68
2022/01/27 08:20:26;;;;;;;32.58;6.95;;;7.60;99.90;;;;;;4938756;28;20043;-68
2022/01/27 08:22:54;;;;;;;29.00;6.70;;;7.60;99.90;;;;;;4941813;28;20042;-68
2022/01/27 08:25:21;;;;;;;20.55;5.70;;;7.60;99.90;;;;;;4944011;28;20415;-68
2022/01/27 08:27:50;;;;;;;22.35;6.75;;;7.60;99.90;;;;;;4944256;28;20047;-67
2022/01/27 08:30:18;;;;;;;17.95;4.65;;;7.60;99.90;;;;;;4938097;28;20039;-68
2022/01/27 08:32:47;;;;;;;23.17;5.38;;;7.70;99.90;;;;;;4937640;28;20416;-68
2022/01/27 08:35:18;;;;;;;27.70;8.15;;;7.70;99.90;;;;;;4940327;28;20078;-68
2022/01/27 08:37:44;;;;;;;16.15;5.47;;;7.70;99.90;;;;;;4925356;29;20510;-68
2022/01/27 08:40:14;;;;;;;26.60;6.13;;;7.80;99.90;;;;;;4954626;28;20081;-67
2022/01/27 08:42:40;;;;;;;17.50;5.88;;;7.80;99.90;;;;;;4956825;28;20054;-68
2022/01/27 08:45:12;;;;;;;18.23;5.22;;;7.80;99.90;;;;;;4936491;28;20047;-67
2022/01/27 08:47:38;;;;;;;15.85;4.65;;;7.80;99.90;;;;;;4935861;28;20055;-67
2022/01/27 08:50:06;;;;;;;26.10;5.43;;;7.80;99.90;;;;;;4942598;28;20051;-68
2022/01/27 08:52:32;;;;;;;19.63;4.95;;;7.90;99.90;;;;;;4936193;28;20046;-68
2022/01/27 08:54:58;;;;;;;14.40;5.07;;;7.80;99.90;;;;;;4944343;28;20099;-68
2022/01/27 08:57:24;;;;;;;24.23;6.33;;;7.80;99.90;;;;;;4946529;28;20031;-68
2022/01/27 08:59:51;;;;;;;14.02;4.53;;;7.80;99.90;;;;;;4956145;28;20046;-68
2022/01/27 09:02:19;;;;;;;16.63;4.70;;;7.90;99.90;;;;;;4942885;28;20075;-67
2022/01/27 09:04:45;;;;;;;20.90;5.18;;;7.90;99.90;;;;;;4957860;28;20300;-68
2022/01/27 09:07:10;;;;;;;13.10;4.17;;;7.90;99.90;;;;;;4941179;28;20250;-68
2022/01/27 09:09:36;;;;;;;12.15;6.43;;;8.00;99.90;;;;;;4960294;28;20051;-68
2022/01/27 09:12:02;;;;;;;20.27;4.40;;;8.00;99.90;;;;;;4943325;28;20554;-67
2022/01/27 09:14:31;;;;;;;21.87;3.97;;;8.10;99.90;;;;;;4942324;28;20058;-67
2022/01/27 09:16:57;;;;;;;15.65;4.57;;;8.10;99.90;;;;;;4942448;28;20035;-67
2022/01/27 09:19:25;;;;;;;17.15;4.63;;;8.20;99.90;;;;;;4952503;28;20050;-67
2022/01/27 09:21:55;;;;;;;17.52;4.93;;;8.20;99.90;;;;;;4956307;28;20109;-68
2022/01/27 09:24:28;;;;;;;25.52;3.95;;;8.20;99.90;;;;;;4953104;28;20042;-68
2022/01/27 09:27:00;;;;;;;11.15;4.28;;;8.30;99.90;;;;;;4942792;28;20039;-68
2022/01/27 09:29:27;;;;;;;17.08;4.18;;;8.30;99.90;;;;;;4939605;28;20688;-67
2022/01/27 09:31:53;;;;;;;20.98;4.25;;;8.40;99.90;;;;;;4943769;28;20098;-67
2022/01/27 09:34:19;;;;;;;15.15;3.80;;;8.40;99.90;;;;;;4940036;28;20047;-67
2022/01/27 09:36:53;;;;;;;17.10;4.03;;;8.40;99.90;;;;;;4943292;28;20544;-67
2022/01/27 09:39:20;;;;;;;17.40;4.15;;;8.40;99.90;;;;;;4944624;28;20484;-68
2022/01/27 09:41:49;;;;;;;21.00;4.85;;;8.40;99.90;;;;;;4951615;28;20518;-67
2022/01/27 09:44:14;;;;;;;28.33;3.90;;;8.40;99.90;;;;;;4938735;28;20499;-67
2022/01/27 09:46:43;;;;;;;19.90;4.73;;;8.40;99.90;;;;;;4937462;28;20032;-67
2022/01/27 09:49:15;;;;;;;17.13;5.22;;;8.40;99.90;;;;;;4940595;28;20515;-67
2022/01/27 09:51:44;;;;;;;20.77;3.78;;;8.40;99.90;;;;;;4940171;28;20070;-67
2022/01/27 09:54:11;;;;;;;15.52;4.55;;;8.40;99.90;;;;;;4943649;28;20102;-67
2022/01/27 09:56:40;;;;;;;22.05;4.65;;;8.40;99.90;;;;;;4943482;28;20452;-68
2022/01/27 09:59:06;;;;;;;19.83;4.30;;;8.50;99.90;;;;;;4944890;28;20142;-67
2022/01/27 10:01:32;;;;;;;18.42;4.72;;;8.40;99.90;;;;;;4924162;29;20078;-67
2022/01/27 10:04:01;;;;;;;21.97;4.10;;;8.50;99.90;;;;;;4942429;28;20496;-67
2022/01/27 10:06:31;;;;;;;27.08;4.70;;;8.50;99.90;;;;;;4954239;28;20051;-67
2022/01/27 10:09:29;;;;;;;18.80;4.35;;;8.50;99.90;;;;;;4945236;28;20424;-68
2022/01/27 10:11:55;;;;;;;14.15;3.75;;;8.50;99.90;;;;;;4946506;28;20303;-67
2022/01/27 10:14:25;;;;;;;16.60;3.60;;;8.50;99.90;;;;;;4944149;28;20039;-67
2022/01/27 10:16:54;;;;;;;17.15;3.58;;;8.60;99.90;;;;;;4932497;28;20044;-67
2022/01/27 10:19:20;;;;;;;15.20;4.85;;;8.60;99.90;;;;;;4955967;28;20230;-67
2022/01/27 10:21:47;;;;;;;13.65;3.78;;;8.60;99.90;;;;;;4936134;28;20053;-67
2022/01/27 10:24:14;;;;;;;13.80;4.07;;;8.60;99.90;;;;;;4944074;28;20408;-68
2022/01/27 10:26:46;;;;;;;11.90;2.53;;;8.70;99.90;;;;;;4942865;28;20040;-67
2022/01/27 10:29:29;;;;;;;16.17;4.38;;;8.70;99.90;;;;;;4954371;28;20179;-68
2022/01/27 10:32:08;;;;;;;23.73;3.53;;;8.70;99.90;;;;;;4934288;28;20035;-67
2022/01/27 10:34:53;;;;;;;13.13;3.10;;;8.80;99.90;;;;;;4959092;28;20058;-67
2022/01/27 10:37:19;;;;;;;10.35;3.42;;;8.80;99.90;;;;;;4947335;28;20399;-67
2022/01/27 10:39:46;;;;;;;14.20;3.20;;;8.90;99.90;;;;;;4949031;28;20055;-67
2022/01/27 10:42:12;;;;;;;12.77;3.40;;;8.80;99.90;;;;;;4947752;28;20043;-67
2022/01/27 10:44:54;;;;;;;16.90;3.03;;;8.90;99.90;;;;;;4956187;28;20404;-67
2022/01/27 10:47:27;;;;;;;16.20;3.00;;;8.90;99.90;;;;;;4948608;28;20481;-67
2022/01/27 10:49:58;;;;;;;22.75;3.38;;;8.90;99.90;;;;;;4957794;28;20073;-68
2022/01/27 10:52:47;;;;;;;23.75;3.78;;;8.90;99.90;;;;;;4961460;28;20562;-68
2022/01/27 10:55:17;;;;;;;24.35;4.40;;;9.00;99.90;;;;;;4953007;28;20039;-67
2022/01/27 10:57:50;;;;;;;16.52;3.25;;;9.00;99.90;;;;;;4940700;28;20055;-68
2022/01/27 11:00:19;;;;;;;17.02;3.95;;;9.00;99.90;;;;;;4941640;28;20420;-68
2022/01/27 11:02:54;;;;;;;16.08;4.28;;;9.00;99.90;;;;;;4944503;28;20087;-67
2022/01/27 11:05:25;;;;;;;19.05;3.85;;;9.00;99.90;;;;;;4958786;28;20447;-68
2022/01/27 11:07:52;;;;;;;17.52;3.10;;;9.00;99.90;;;;;;4946603;28;20046;-67
2022/01/27 11:10:20;;;;;;;17.67;3.70;;;9.10;99.90;;;;;;4947055;28;20046;-68
2022/01/27 11:12:46;;;;;;;14.90;2.67;;;9.00;99.90;;;;;;4944031;28;20043;-67
2022/01/27 11:15:13;;;;;;;;;;;9.10;99.90;;;;;;4943239;28;20448;-68
2022/01/27 11:17:41;;;;;;;25.70;4.10;;;9.10;99.90;;;;;;4937810;28;19919;-68
2022/01/27 11:20:32;;;;;;;18.25;3.53;;;9.00;99.90;;;;;;4944293;28;20688;-68
2022/01/27 11:23:11;;;;;;;12.02;2.60;;;9.10;99.90;;;;;;4957474;28;20066;-67
2022/01/27 11:28:05;;;;;;;16.45;3.08;;;9.10;99.90;;;;;;4945554;28;20062;-68
2022/01/27 11:30:37;;;;;;;18.60;2.83;;;9.10;99.90;;;;;;4957682;28;20050;-68
2022/01/27 11:33:11;;;;;;;18.35;4.38;;;9.10;99.90;;;;;;4960848;28;20082;-68
2022/01/27 11:35:39;;;;;;;13.57;3.10;;;9.10;99.90;;;;;;4945803;28;20054;-68
2022/01/27 11:38:06;;;;;;;20.70;3.08;;;9.10;99.90;;;;;;4942957;28;20519;-67
2022/01/27 11:40:46;;;;;;;16.67;3.47;;;9.10;99.90;;;;;;4934945;28;20047;-68
2022/01/27 11:43:16;;;;;;;15.52;2.25;;;9.10;99.90;;;;;;4940746;28;20074;-68
2022/01/27 11:45:44;;;;;;;15.00;2.92;;;9.10;99.90;;;;;;4945402;28;20424;-68
2022/01/27 11:48:15;;;;;;;14.85;2.58;;;9.10;99.90;;;;;;4944496;28;20082;-68
2022/01/27 11:50:52;;;;;;;20.85;2.95;;;9.20;99.90;;;;;;4940306;28;20145;-67
2022/01/27 11:53:31;;;;;;;24.13;3.40;;;9.20;99.90;;;;;;4959747;28;20042;-68
2022/01/27 11:56:03;;;;;;;13.80;2.55;;;9.20;99.90;;;;;;4947974;28;20491;-68
2022/01/27 11:58:29;;;;;;;19.70;4.30;;;9.30;99.90;;;;;;4939763;28;20147;-68
2022/01/27 12:01:11;;;;;;;18.42;3.28;;;9.30;99.90;;;;;;4962736;28;20047;-68
2022/01/27 12:03:38;;;;;;;15.80;2.25;;;9.30;99.90;;;;;;4941123;28;20078;-68
2022/01/27 12:06:13;;;;;;;28.25;4.05;;;9.30;99.90;;;;;;4941101;28;20473;-67
2022/01/27 12:08:38;;;;;;;27.67;3.55;;;9.30;99.90;;;;;;4957563;28;20123;-68
2022/01/27 12:11:07;;;;;;;15.13;2.87;;;9.30;99.90;;;;;;4947610;28;20054;-68
2022/01/27 12:13:46;;;;;;;22.10;3.72;;;9.30;99.90;;;;;;4962467;28;20047;-67
2022/01/27 12:19:09;;;;;;;18.80;3.13;;;9.30;99.90;;;;;;4949212;28;20049;-67
2022/01/27 12:21:38;;;;;;;17.20;2.97;;;9.30;99.90;;;;;;4947355;28;20130;-67
2022/01/27 12:26:51;;;;;;;22.70;3.38;;;9.40;99.90;;;;;;4944492;28;20055;-68
2022/01/27 12:29:22;;;;;;;20.42;3.38;;;9.40;99.90;;;;;;4961244;28;20047;-68
2022/01/27 12:31:49;;;;;;;18.98;3.08;;;9.40;99.90;;;;;;4940037;28;22109;-68
2022/01/27 12:34:14;;;;;;;18.23;2.85;;;9.40;99.90;;;;;;4946145;28;20051;-67
2022/01/27 12:37:12;;;;;;;24.67;2.83;;;9.40;99.90;;;;;;4947095;28;20042;-68
2022/01/27 12:39:49;;;;;;;19.60;2.13;;;9.40;99.90;;;;;;4932920;28;20057;-67
2022/01/27 12:42:17;;;;;;;17.08;2.80;;;9.40;99.90;;;;;;4941522;28;20071;-68
2022/01/27 12:44:58;;;;;;;24.33;4.30;;;9.40;99.90;;;;;;4947755;28;20146;-67
2022/01/27 12:47:25;;;;;;;20.85;4.28;;;9.40;99.90;;;;;;4960017;28;20131;-70
2022/01/27 12:50:03;;;;;;;21.15;3.45;;;9.40;99.90;;;;;;4944071;28;20085;-67
2022/01/27 12:52:32;;;;;;;18.92;3.95;;;9.40;99.90;;;;;;4941325;28;20040;-68
2022/01/27 12:54:58;;;;;;;25.20;3.30;;;9.40;99.90;;;;;;4942770;28;20043;-67
2022/01/27 12:57:26;;;;;;;14.68;2.70;;;9.40;99.90;;;;;;4939623;28;20042;-68
2022/01/27 12:59:54;;;;;;;19.70;2.97;;;9.40;99.90;;;;;;4925882;28;20043;-68
2022/01/27 13:02:22;;;;;;;17.30;2.85;;;9.40;99.90;;;;;;4942708;28;20597;-68
2022/01/27 13:04:49;;;;;;;22.70;3.15;;;9.40;99.90;;;;;;4949414;28;20051;-68
2022/01/27 13:07:15;;;;;;;14.77;2.92;;;9.40;99.90;;;;;;4940403;28;20094;-67
2022/01/27 13:09:43;;;;;;;13.70;2.97;;;9.40;99.90;;;;;;4943482;28;20051;-68
2022/01/27 13:12:33;;;;;;;16.70;4.32;;;9.40;99.90;;;;;;4948661;28;20126;-67
2022/01/27 13:15:21;;;;;;;24.95;2.95;;;9.40;99.90;;;;;;4955106;28;20106;-67
2022/01/27 13:17:59;;;;;;;14.57;3.95;;;9.40;99.90;;;;;;4983179;23;20538;-66
2022/01/27 13:26:07;;;;;;;11.18;2.40;;;9.30;99.90;;;;;;4942318;28;20451;-66
2022/01/27 13:28:35;;;;;;;17.92;3.05;;;9.40;99.90;;;;;;4932961;28;20070;-66
2022/01/27 13:31:03;;;;;;;14.85;2.38;;;9.50;99.90;;;;;;4940859;28;20059;-67
2022/01/27 13:33:34;;;;;;;13.98;2.85;;;9.40;99.90;;;;;;4934686;28;20046;-66
2022/01/27 13:35:59;;;;;;;20.50;3.28;;;9.40;99.90;;;;;;4936491;28;20050;-66
2022/01/27 13:38:30;;;;;;;21.77;2.58;;;9.40;99.90;;;;;;4937547;28;20047;-66